<?xml version="1.0" encoding="utf-8"?>
<gpx xmlns:xsi="http://www.w3.org/2001/XMLSchema-instance" xmlns:xsd="http://www.w3.org/2001/XMLSchema" version="1.1" creator="Shapelink.com" xmlns="http://www.topografix.com/GPX/1/1" xmlns:gpxtpx="http://www.garmin.com/xmlschemas/TrackPointExtension/v1">
  <metadata>
    <name>Löpning 3.00 km, 2020-08-18</name>
    <desc></desc>
    <author><name>Marian Moron</name></author> 
    <time>2020-08-18T18:47:12Z</time>
  </metadata>
  <trk>
    <name>Löpning 3.00 km, 2020-08-18</name>
    <trkseg>
      <trkpt lat="51.215043973414" lon="4.484884373725">
        <ele>0</ele>
        <time>2020-08-18T18:47:12Z</time>
      </trkpt>
      <trkpt lat="51.214859487795" lon="4.484772810636">
        <ele>0</ele>
        <time>2020-08-18T18:47:18Z</time>
      </trkpt>
      <trkpt lat="51.214710373794" lon="4.484569130466">
        <ele>0</ele>
        <time>2020-08-18T18:47:24Z</time>
      </trkpt>
      <trkpt lat="51.214613730487" lon="4.484281128382">
        <ele>0</ele>
        <time>2020-08-18T18:47:31Z</time>
      </trkpt>
      <trkpt lat="51.214587411321" lon="4.483951216798">
        <ele>0</ele>
        <time>2020-08-18T18:47:38Z</time>
      </trkpt>
      <trkpt lat="51.214579532335" lon="4.483626921087">
        <ele>0</ele>
        <time>2020-08-18T18:47:45Z</time>
      </trkpt>
      <trkpt lat="51.214571066616" lon="4.483300362263">
        <ele>0</ele>
        <time>2020-08-18T18:47:52Z</time>
      </trkpt>
      <trkpt lat="51.214567294761" lon="4.482985957194">
        <ele>0</ele>
        <time>2020-08-18T18:47:59Z</time>
      </trkpt>
      <trkpt lat="51.214633344133" lon="4.48268454407">
        <ele>0</ele>
        <time>2020-08-18T18:48:06Z</time>
      </trkpt>
      <trkpt lat="51.214778686279" lon="4.482486395954">
        <ele>0</ele>
        <time>2020-08-18T18:48:13Z</time>
      </trkpt>
      <trkpt lat="51.214963926269" lon="4.482393943597">
        <ele>0</ele>
        <time>2020-08-18T18:48:20Z</time>
      </trkpt>
      <trkpt lat="51.215155033589" lon="4.482432835613">
        <ele>0</ele>
        <time>2020-08-18T18:48:27Z</time>
      </trkpt>
      <trkpt lat="51.215329628566" lon="4.482596031206">
        <ele>1</ele>
        <time>2020-08-18T18:48:34Z</time>
      </trkpt>
      <trkpt lat="51.215482095327" lon="4.48280608162">
        <ele>2</ele>
        <time>2020-08-18T18:48:41Z</time>
      </trkpt>
      <trkpt lat="51.215517802221" lon="4.483086539994">
        <ele>2.2</ele>
        <time>2020-08-18T18:48:47Z</time>
      </trkpt>
      <trkpt lat="51.215526016483" lon="4.483378733028">
        <ele>2</ele>
        <time>2020-08-18T18:48:53Z</time>
      </trkpt>
      <trkpt lat="51.215521154981" lon="4.483706213861">
        <ele>0.8</ele>
        <time>2020-08-18T18:49:00Z</time>
      </trkpt>
      <trkpt lat="51.215522328447" lon="4.484019277826">
        <ele>0</ele>
        <time>2020-08-18T18:49:07Z</time>
      </trkpt>
      <trkpt lat="51.215500870783" lon="4.484317422009">
        <ele>0.6</ele>
        <time>2020-08-18T18:49:13Z</time>
      </trkpt>
      <trkpt lat="51.215426607149" lon="4.484608106301">
        <ele>1</ele>
        <time>2020-08-18T18:49:19Z</time>
      </trkpt>
      <trkpt lat="51.215275565311" lon="4.484824359321">
        <ele>1.4</ele>
        <time>2020-08-18T18:49:25Z</time>
      </trkpt>
      <trkpt lat="51.21508454181" lon="4.484891582159">
        <ele>0.4</ele>
        <time>2020-08-18T18:49:33Z</time>
      </trkpt>
      <trkpt lat="51.214969374504" lon="4.484886720657">
        <ele>0</ele>
        <time>2020-08-18T18:49:38Z</time>
      </trkpt>
      <trkpt lat="51.21479788083" lon="4.484748503126">
        <ele>0</ele>
        <time>2020-08-18T18:49:44Z</time>
      </trkpt>
      <trkpt lat="51.214691849795" lon="4.484502745818">
        <ele>0.4</ele>
        <time>2020-08-18T18:49:50Z</time>
      </trkpt>
      <trkpt lat="51.214638289454" lon="4.48421088806">
        <ele>1.6</ele>
        <time>2020-08-18T18:49:56Z</time>
      </trkpt>
      <trkpt lat="51.214613646668" lon="4.483905619262">
        <ele>3</ele>
        <time>2020-08-18T18:50:02Z</time>
      </trkpt>
      <trkpt lat="51.214593111013" lon="4.483601440111">
        <ele>4</ele>
        <time>2020-08-18T18:50:08Z</time>
      </trkpt>
      <trkpt lat="51.214582633638" lon="4.48328804087">
        <ele>5.2</ele>
        <time>2020-08-18T18:50:14Z</time>
      </trkpt>
      <trkpt lat="51.214597888696" lon="4.482979335493">
        <ele>6</ele>
        <time>2020-08-18T18:50:20Z</time>
      </trkpt>
      <trkpt lat="51.214707607767" lon="4.482701475508">
        <ele>7</ele>
        <time>2020-08-18T18:50:27Z</time>
      </trkpt>
      <trkpt lat="51.214879855812" lon="4.482536687354">
        <ele>7.4</ele>
        <time>2020-08-18T18:50:33Z</time>
      </trkpt>
      <trkpt lat="51.21507196896" lon="4.482472984914">
        <ele>9.2</ele>
        <time>2020-08-18T18:50:39Z</time>
      </trkpt>
      <trkpt lat="51.215269530343" lon="4.482557223009">
        <ele>10.4</ele>
        <time>2020-08-18T18:50:45Z</time>
      </trkpt>
      <trkpt lat="51.215408753702" lon="4.482750509623">
        <ele>11.8</ele>
        <time>2020-08-18T18:50:50Z</time>
      </trkpt>
      <trkpt lat="51.215502044249" lon="4.483028369608">
        <ele>12.4</ele>
        <time>2020-08-18T18:50:56Z</time>
      </trkpt>
      <trkpt lat="51.215514114185" lon="4.483332548759">
        <ele>12.2</ele>
        <time>2020-08-18T18:51:02Z</time>
      </trkpt>
      <trkpt lat="51.215505899923" lon="4.483642259964">
        <ele>10.6</ele>
        <time>2020-08-18T18:51:08Z</time>
      </trkpt>
      <trkpt lat="51.215502547163" lon="4.483961442716">
        <ele>8.8</ele>
        <time>2020-08-18T18:51:14Z</time>
      </trkpt>
      <trkpt lat="51.215489639037" lon="4.484300406752">
        <ele>7.8</ele>
        <time>2020-08-18T18:51:20Z</time>
      </trkpt>
      <trkpt lat="51.215412441738" lon="4.484603244799">
        <ele>8.6</ele>
        <time>2020-08-18T18:51:26Z</time>
      </trkpt>
      <trkpt lat="51.215253688552" lon="4.484807846978">
        <ele>9.2</ele>
        <time>2020-08-18T18:51:32Z</time>
      </trkpt>
      <trkpt lat="51.215074064435" lon="4.484863335156">
        <ele>8.2</ele>
        <time>2020-08-18T18:51:38Z</time>
      </trkpt>
      <trkpt lat="51.214895194689" lon="4.484787730418">
        <ele>7</ele>
        <time>2020-08-18T18:51:44Z</time>
      </trkpt>
      <trkpt lat="51.214744823403" lon="4.484628725775">
        <ele>7.4</ele>
        <time>2020-08-18T18:51:50Z</time>
      </trkpt>
      <trkpt lat="51.214584226199" lon="4.484039645843">
        <ele>7.2</ele>
        <time>2020-08-18T18:52:04Z</time>
      </trkpt>
      <trkpt lat="51.214571066616" lon="4.483730689009">
        <ele>7.2</ele>
        <time>2020-08-18T18:52:11Z</time>
      </trkpt>
      <trkpt lat="51.214547513477" lon="4.483416703035">
        <ele>6.6</ele>
        <time>2020-08-18T18:52:18Z</time>
      </trkpt>
      <trkpt lat="51.214534186256" lon="4.483101459776">
        <ele>6.8</ele>
        <time>2020-08-18T18:52:25Z</time>
      </trkpt>
      <trkpt lat="51.214607946976" lon="4.482807171267">
        <ele>6.6</ele>
        <time>2020-08-18T18:52:32Z</time>
      </trkpt>
      <trkpt lat="51.214740464815" lon="4.482609358427">
        <ele>4.8</ele>
        <time>2020-08-18T18:52:38Z</time>
      </trkpt>
      <trkpt lat="51.214915562706" lon="4.482491508913">
        <ele>3.8</ele>
        <time>2020-08-18T18:52:44Z</time>
      </trkpt>
      <trkpt lat="51.215095522099" lon="4.482459573874">
        <ele>2.6</ele>
        <time>2020-08-18T18:52:50Z</time>
      </trkpt>
      <trkpt lat="51.215267937782" lon="4.482572310429">
        <ele>3.6</ele>
        <time>2020-08-18T18:52:56Z</time>
      </trkpt>
      <trkpt lat="51.215410849177" lon="4.482764088301">
        <ele>4</ele>
        <time>2020-08-18T18:53:02Z</time>
      </trkpt>
      <trkpt lat="51.215480754223" lon="4.483066507253">
        <ele>7</ele>
        <time>2020-08-18T18:53:09Z</time>
      </trkpt>
      <trkpt lat="51.215513192176" lon="4.483349815473">
        <ele>8.4</ele>
        <time>2020-08-18T18:53:15Z</time>
      </trkpt>
      <trkpt lat="51.21555811916" lon="4.48367528465">
        <ele>11</ele>
        <time>2020-08-18T18:53:22Z</time>
      </trkpt>
      <trkpt lat="51.215564657042" lon="4.484004022768">
        <ele>9.6</ele>
        <time>2020-08-18T18:53:29Z</time>
      </trkpt>
      <trkpt lat="51.215545378672" lon="4.484332593248">
        <ele>8</ele>
        <time>2020-08-18T18:53:36Z</time>
      </trkpt>
      <trkpt lat="51.21546591826" lon="4.484621768798">
        <ele>8.4</ele>
        <time>2020-08-18T18:53:42Z</time>
      </trkpt>
      <trkpt lat="51.215313619137" lon="4.484834166144">
        <ele>9.4</ele>
        <time>2020-08-18T18:53:48Z</time>
      </trkpt>
      <trkpt lat="51.215117315039" lon="4.484903568276">
        <ele>9.2</ele>
        <time>2020-08-18T18:53:54Z</time>
      </trkpt>
      <trkpt lat="51.214929895755" lon="4.484850175573">
        <ele>7.6</ele>
        <time>2020-08-18T18:54:00Z</time>
      </trkpt>
      <trkpt lat="51.214751612742" lon="4.484740959416">
        <ele>3.8</ele>
        <time>2020-08-18T18:54:05Z</time>
      </trkpt>
      <trkpt lat="51.214615071591" lon="4.484498638687">
        <ele>0</ele>
        <time>2020-08-18T18:54:11Z</time>
      </trkpt>
      <trkpt lat="51.214559080499" lon="4.484217761218">
        <ele>0</ele>
        <time>2020-08-18T18:54:17Z</time>
      </trkpt>
      <trkpt lat="51.214540388862" lon="4.483932944256">
        <ele>0</ele>
        <time>2020-08-18T18:54:23Z</time>
      </trkpt>
      <trkpt lat="51.214523038329" lon="4.483621808128">
        <ele>2.6</ele>
        <time>2020-08-18T18:54:30Z</time>
      </trkpt>
      <trkpt lat="51.214515494619" lon="4.483295081666">
        <ele>4</ele>
        <time>2020-08-18T18:54:37Z</time>
      </trkpt>
      <trkpt lat="51.214538461025" lon="4.482992578895">
        <ele>3.4</ele>
        <time>2020-08-18T18:54:44Z</time>
      </trkpt>
      <trkpt lat="51.214648934467" lon="4.482735003108">
        <ele>1.4</ele>
        <time>2020-08-18T18:54:51Z</time>
      </trkpt>
      <trkpt lat="51.214803831979" lon="4.482571975153">
        <ele>1.6</ele>
        <time>2020-08-18T18:54:57Z</time>
      </trkpt>
      <trkpt lat="51.214991837996" lon="4.482487317963">
        <ele>1.6</ele>
        <time>2020-08-18T18:55:03Z</time>
      </trkpt>
      <trkpt lat="51.215171462113" lon="4.482527551083">
        <ele>2.6</ele>
        <time>2020-08-18T18:55:09Z</time>
      </trkpt>
      <trkpt lat="51.215342117597" lon="4.482684879346">
        <ele>4.6</ele>
        <time>2020-08-18T18:55:15Z</time>
      </trkpt>
      <trkpt lat="51.215447813356" lon="4.482922841487">
        <ele>6.2</ele>
        <time>2020-08-18T18:55:21Z</time>
      </trkpt>
      <trkpt lat="51.21548938758" lon="4.483245879913">
        <ele>5.2</ele>
        <time>2020-08-18T18:55:28Z</time>
      </trkpt>
      <trkpt lat="51.215498942946" lon="4.483545784295">
        <ele>2.8</ele>
        <time>2020-08-18T18:55:34Z</time>
      </trkpt>
      <trkpt lat="51.215509001226" lon="4.48384459903">
        <ele>2.2</ele>
        <time>2020-08-18T18:55:40Z</time>
      </trkpt>
      <trkpt lat="51.215508414493" lon="4.484138300806">
        <ele>0</ele>
        <time>2020-08-18T18:55:47Z</time>
      </trkpt>
      <trkpt lat="51.215456111437" lon="4.484433511324">
        <ele>0</ele>
        <time>2020-08-18T18:55:55Z</time>
      </trkpt>
      <trkpt lat="51.215419650172" lon="4.484712796232">
        <ele>0</ele>
        <time>2020-08-18T18:56:01Z</time>
      </trkpt>
      <trkpt lat="51.215286880876" lon="4.484914213289">
        <ele>1</ele>
        <time>2020-08-18T18:56:07Z</time>
      </trkpt>
      <trkpt lat="51.215104742189" lon="4.484999205755">
        <ele>0</ele>
        <time>2020-08-18T18:56:13Z</time>
      </trkpt>
      <trkpt lat="51.214898966544" lon="4.484945813052">
        <ele>0</ele>
        <time>2020-08-18T18:56:19Z</time>
      </trkpt>
      <trkpt lat="51.214727053775" lon="4.484762249442">
        <ele>0</ele>
        <time>2020-08-18T18:56:25Z</time>
      </trkpt>
      <trkpt lat="51.214650946123" lon="4.48456376605">
        <ele>0</ele>
        <time>2020-08-18T18:56:32Z</time>
      </trkpt>
      <trkpt lat="51.214762090117" lon="4.484762500899">
        <ele>0</ele>
        <time>2020-08-18T18:56:40Z</time>
      </trkpt>
      <trkpt lat="51.214966859934" lon="4.484830394289">
        <ele>0</ele>
        <time>2020-08-18T18:56:46Z</time>
      </trkpt>
      <trkpt lat="51.21513734778" lon="4.484942879387">
        <ele>0</ele>
        <time>2020-08-18T18:56:53Z</time>
      </trkpt>
      <trkpt lat="51.215229967775" lon="4.484898371498">
        <ele>0.8</ele>
        <time>2020-08-18T18:56:58Z</time>
      </trkpt>
      <trkpt lat="51.215168779905" lon="4.484933575478">
        <ele>0</ele>
        <time>2020-08-18T19:00:58Z</time>
      </trkpt>
      <trkpt lat="51.214964010088" lon="4.484944723405">
        <ele>0</ele>
        <time>2020-08-18T19:01:07Z</time>
      </trkpt>
      <trkpt lat="51.214788409283" lon="4.484823772588">
        <ele>0</ele>
        <time>2020-08-18T19:01:14Z</time>
      </trkpt>
      <trkpt lat="51.214668380475" lon="4.48460819012">
        <ele>0</ele>
        <time>2020-08-18T19:01:21Z</time>
      </trkpt>
      <trkpt lat="51.214594787393" lon="4.484336197465">
        <ele>0</ele>
        <time>2020-08-18T19:01:28Z</time>
      </trkpt>
      <trkpt lat="51.214568803503" lon="4.484021960034">
        <ele>0</ele>
        <time>2020-08-18T19:01:35Z</time>
      </trkpt>
      <trkpt lat="51.214559164318" lon="4.483733035941">
        <ele>0.6</ele>
        <time>2020-08-18T19:01:42Z</time>
      </trkpt>
      <trkpt lat="51.214538377206" lon="4.483423995288">
        <ele>3.4</ele>
        <time>2020-08-18T19:01:50Z</time>
      </trkpt>
      <trkpt lat="51.214545334183" lon="4.483127024571">
        <ele>3.8</ele>
        <time>2020-08-18T19:01:58Z</time>
      </trkpt>
      <trkpt lat="51.214610461546" lon="4.482849583681">
        <ele>3</ele>
        <time>2020-08-18T19:02:06Z</time>
      </trkpt>
      <trkpt lat="51.214741386824" lon="4.482633749756">
        <ele>1.2</ele>
        <time>2020-08-18T19:02:14Z</time>
      </trkpt>
      <trkpt lat="51.214909779195" lon="4.482511625473">
        <ele>2.2</ele>
        <time>2020-08-18T19:02:21Z</time>
      </trkpt>
      <trkpt lat="51.215108262587" lon="4.482501148098">
        <ele>1.4</ele>
        <time>2020-08-18T19:02:29Z</time>
      </trkpt>
      <trkpt lat="51.215281432641" lon="4.482647579891">
        <ele>0.6</ele>
        <time>2020-08-18T19:02:37Z</time>
      </trkpt>
      <trkpt lat="51.215361731243" lon="4.482925775152">
        <ele>2.4</ele>
        <time>2020-08-18T19:02:44Z</time>
      </trkpt>
      <trkpt lat="51.215457703998" lon="4.483194834142">
        <ele>1.8</ele>
        <time>2020-08-18T19:02:51Z</time>
      </trkpt>
      <trkpt lat="51.215490477227" lon="4.483513849256">
        <ele>2.6</ele>
        <time>2020-08-18T19:02:59Z</time>
      </trkpt>
      <trkpt lat="51.21549441672" lon="4.483799672046">
        <ele>2</ele>
        <time>2020-08-18T19:03:06Z</time>
      </trkpt>
      <trkpt lat="51.215462900776" lon="4.48410108517">
        <ele>3.4</ele>
        <time>2020-08-18T19:03:13Z</time>
      </trkpt>
      <trkpt lat="51.215440437284" lon="4.484396295688">
        <ele>3.4</ele>
        <time>2020-08-18T19:03:20Z</time>
      </trkpt>
      <trkpt lat="51.215350918592" lon="4.484691757663">
        <ele>3.6</ele>
        <time>2020-08-18T19:03:27Z</time>
      </trkpt>
      <trkpt lat="51.215231141241" lon="4.484924690664">
        <ele>3</ele>
        <time>2020-08-18T19:03:34Z</time>
      </trkpt>
      <trkpt lat="51.215034166591" lon="4.484990237122">
        <ele>2</ele>
        <time>2020-08-18T19:03:40Z</time>
      </trkpt>
      <trkpt lat="51.21485571594" lon="4.484920499714">
        <ele>0.8</ele>
        <time>2020-08-18T19:03:46Z</time>
      </trkpt>
      <trkpt lat="51.21471573821" lon="4.484737522837">
        <ele>0.8</ele>
        <time>2020-08-18T19:03:52Z</time>
      </trkpt>
      <trkpt lat="51.21461096446" lon="4.484479192679">
        <ele>0</ele>
        <time>2020-08-18T19:03:59Z</time>
      </trkpt>
      <trkpt lat="51.214550195685" lon="4.484182808695">
        <ele>0</ele>
        <time>2020-08-18T19:04:05Z</time>
      </trkpt>
      <trkpt lat="51.214539634491" lon="4.48386639197">
        <ele>0.6</ele>
        <time>2020-08-18T19:04:11Z</time>
      </trkpt>
      <trkpt lat="51.214543657803" lon="4.483544191734">
        <ele>1.4</ele>
        <time>2020-08-18T19:04:18Z</time>
      </trkpt>
      <trkpt lat="51.214534772989" lon="4.483257111659">
        <ele>0.8</ele>
        <time>2020-08-18T19:04:27Z</time>
      </trkpt>
      <trkpt lat="51.214562097983" lon="4.482971456507">
        <ele>1.2</ele>
        <time>2020-08-18T19:04:37Z</time>
      </trkpt>
      <trkpt lat="51.214596128497" lon="4.482867353309">
        <ele>0.6</ele>
        <time>2020-08-18T19:04:41Z</time>
      </trkpt>
      <trkpt lat="51.214718839513" lon="4.482645735873">
        <ele>0</ele>
        <time>2020-08-18T19:04:51Z</time>
      </trkpt>
      <trkpt lat="51.21489427268" lon="4.482486898868">
        <ele>0</ele>
        <time>2020-08-18T19:05:00Z</time>
      </trkpt>
      <trkpt lat="51.215080015584" lon="4.482484803393">
        <ele>1.6</ele>
        <time>2020-08-18T19:05:09Z</time>
      </trkpt>
      <trkpt lat="51.215253772371" lon="4.482581698157">
        <ele>4.2</ele>
        <time>2020-08-18T19:05:18Z</time>
      </trkpt>
      <trkpt lat="51.215385703477" lon="4.482772973115">
        <ele>5.2</ele>
        <time>2020-08-18T19:05:27Z</time>
      </trkpt>
      <trkpt lat="51.215462397862" lon="4.483038679345">
        <ele>3</ele>
        <time>2020-08-18T19:05:38Z</time>
      </trkpt>
      <trkpt lat="51.215434150859" lon="4.483338583727">
        <ele>1.4</ele>
        <time>2020-08-18T19:05:45Z</time>
      </trkpt>
      <trkpt lat="51.215474803074" lon="4.483634380978">
        <ele>0.8</ele>
        <time>2020-08-18T19:05:56Z</time>
      </trkpt>
      <trkpt lat="51.21548184387" lon="4.483944008364">
        <ele>0.4</ele>
        <time>2020-08-18T19:06:06Z</time>
      </trkpt>
      <trkpt lat="51.215492991797" lon="4.484250199171">
        <ele>0</ele>
        <time>2020-08-18T19:06:16Z</time>
      </trkpt>
      <trkpt lat="51.215455608523" lon="4.484537195427">
        <ele>0</ele>
        <time>2020-08-18T19:06:25Z</time>
      </trkpt>
      <trkpt lat="51.215365084003" lon="4.484806757331">
        <ele>0</ele>
        <time>2020-08-18T19:06:34Z</time>
      </trkpt>
      <trkpt lat="51.215338010466" lon="4.484852857781">
        <ele>0</ele>
        <time>2020-08-18T19:06:36Z</time>
      </trkpt>
      <trkpt lat="51.215209683577" lon="4.484988309285">
        <ele>0</ele>
        <time>2020-08-18T19:06:43Z</time>
      </trkpt>
      <trkpt lat="51.215165930059" lon="4.484994428072">
        <ele>0</ele>
        <time>2020-08-18T19:06:45Z</time>
      </trkpt>
      <trkpt lat="51.215038776636" lon="4.485025022007">
        <ele>0</ele>
        <time>2020-08-18T19:06:51Z</time>
      </trkpt>
      <trkpt lat="51.214992424729" lon="4.485023597084">
        <ele>0</ele>
        <time>2020-08-18T19:06:53Z</time>
      </trkpt>
      <trkpt lat="51.215013379479" lon="4.484950926011">
        <ele>0</ele>
        <time>2020-08-18T19:06:56Z</time>
      </trkpt>
      <trkpt lat="51.215203480971" lon="4.484933491659">
        <ele>0</ele>
        <time>2020-08-18T19:07:03Z</time>
      </trkpt>
      <trkpt lat="51.215290149817" lon="4.484806757331">
        <ele>0</ele>
        <time>2020-08-18T19:07:11Z</time>
      </trkpt>
    </trkseg>
  </trk>
</gpx>